North Saint Paul, Minnesota
Current Conditions -  °F | °C
As of 8:53 PM on Friday 28 Nov 2014 (Local Time) from KSTP Reporting Station
Clear Clear  
Wind Chill: -10°   Ceiling: Unl
Heat Index: -5°   Visibility: 10mi
Dew Point: -8°   Wind: 8mph
Humidity: 81%   Direction: 120°ESE
Pressure: 29.8"   Gusts: NA
Location:  45.0145°N, 93.0259°W
Report Text: KSTP 290253Z 12007KT 10SM CLR M05/M08 A2980 RMK AO2 SLP100 60000 T10501078 58019
Loading
Personal Weather Stations






























Interactive Weather Map New forecast layout! Learn more

10-Day Weather Forecast

Advertisements
Track Severe Weather on mobile